Time;durP1;ratioP1;P1;durP2;ratioP2;P2;SDS_P1;SDS_P2;PMS_P1;PMS_P2;Temp;Humidity;BMP_temperature;BMP_pressure;BME280_temperature;BME280_humidity;BME280_pressure;Samples;Min_cycle;Max_cycle;Signal;HPM_P1;HPM_P2
2022/05/29 00:00:18;;;;;;;7.15;1.42;;;;;;;;;;4972777;28;20029;-75
2022/05/29 00:02:44;;;;;;;5.05;1.02;;;;;;;;;;4971684;28;20488;-75
2022/05/29 00:05:12;;;;;;;3.05;0.88;;;;;;;;;;4988235;28;20041;-76
2022/05/29 00:07:40;;;;;;;5.72;1.00;;;;;;;;;;4980108;28;20027;-74
2022/05/29 00:10:08;;;;;;;4.43;1.10;;;;;;;;;;4963697;28;20407;-75
2022/05/29 00:12:34;;;;;;;4.65;1.38;;;;;;;;;;4972153;28;20391;-74
2022/05/29 00:15:01;;;;;;;5.50;1.20;;;;;;;;;;4972469;28;20035;-75
2022/05/29 00:17:27;;;;;;;4.13;0.90;;;;;;;;;;4972519;28;20035;-74
2022/05/29 00:19:54;;;;;;;4.10;1.00;;;;;;;;;;4972054;28;20023;-75
2022/05/29 00:22:22;;;;;;;4.22;1.02;;;;;;;;;;4972623;28;20067;-75
2022/05/29 00:24:49;;;;;;;7.53;1.13;;;;;;;;;;4971873;28;20429;-75
2022/05/29 00:27:16;;;;;;;3.95;1.20;;;;;;;;;;4972492;28;20031;-76
2022/05/29 00:29:43;;;;;;;4.57;1.25;;;;;;;;;;4972989;28;20023;-76
2022/05/29 00:32:10;;;;;;;4.63;1.23;;;;;;;;;;4968347;28;20031;-76
2022/05/29 00:34:36;;;;;;;5.40;0.90;;;;;;;;;;4967941;28;20530;-76
2022/05/29 00:37:05;;;;;;;5.50;1.25;;;;;;;;;;4971024;28;20027;-77
2022/05/29 00:39:31;;;;;;;2.65;1.00;;;;;;;;;;4973285;28;20019;-76
2022/05/29 00:41:58;;;;;;;4.85;1.13;;;;;;;;;;4974299;28;20023;-77
2022/05/29 00:44:25;;;;;;;5.47;1.42;;;;;;;;;;4974628;28;20048;-76
2022/05/29 00:46:51;;;;;;;4.60;1.13;;;;;;;;;;4975606;28;20054;-76
2022/05/29 00:49:19;;;;;;;8.20;1.25;;;;;;;;;;4976834;28;20029;-76
2022/05/29 00:52:02;;;;;;;3.70;1.40;;;;;;;;;;4975718;28;20046;-76
2022/05/29 00:54:29;;;;;;;2.92;0.88;;;;;;;;;;4960431;28;20030;-76
2022/05/29 00:56:56;;;;;;;7.90;1.23;;;;;;;;;;4973520;28;20027;-76
2022/05/29 00:59:26;;;;;;;5.95;1.20;;;;;;;;;;4971918;28;20031;-77
2022/05/29 01:01:53;;;;;;;5.55;1.25;;;;;;;;;;4971230;28;20031;-76
2022/05/29 01:04:21;;;;;;;4.72;1.35;;;;;;;;;;4971751;28;20511;-76
2022/05/29 01:06:47;;;;;;;3.33;0.90;;;;;;;;;;4975003;28;20019;-77
2022/05/29 01:09:14;;;;;;;11.85;1.20;;;;;;;;;;4975571;28;20022;-76
2022/05/29 01:11:49;;;;;;;2.90;1.20;;;;;;;;;;4976029;28;20033;-76
2022/05/29 01:14:25;;;;;;;4.30;1.00;;;;;;;;;;4974646;28;20046;-77
2022/05/29 01:17:01;;;;;;;6.18;1.10;;;;;;;;;;4975555;28;20037;-76
2022/05/29 01:19:39;;;;;;;2.60;1.10;;;;;;;;;;4970059;28;20035;-77
2022/05/29 01:22:09;;;;;;;4.57;1.30;;;;;;;;;;4970677;28;20019;-76
2022/05/29 01:24:51;;;;;;;4.35;1.13;;;;;;;;;;4972268;28;20031;-76
2022/05/29 01:27:36;;;;;;;5.03;1.30;;;;;;;;;;4959653;28;20015;-77
2022/05/29 01:30:19;;;;;;;5.30;1.20;;;;;;;;;;4974108;28;20037;-76
2022/05/29 01:32:46;;;;;;;2.92;1.10;;;;;;;;;;4972033;28;20030;-77
2022/05/29 01:35:16;;;;;;;3.38;1.00;;;;;;;;;;4974893;28;20043;-77
2022/05/29 01:37:48;;;;;;;4.93;1.27;;;;;;;;;;4975379;28;20411;-76
2022/05/29 01:40:17;;;;;;;6.93;1.15;;;;;;;;;;4974983;28;20450;-76
2022/05/29 01:42:49;;;;;;;4.45;0.95;;;;;;;;;;4975280;28;20500;-76
2022/05/29 01:45:22;;;;;;;13.95;1.10;;;;;;;;;;4959854;28;20037;-77
2022/05/29 01:47:52;;;;;;;4.82;1.10;;;;;;;;;;4974565;28;20042;-76
2022/05/29 01:50:47;;;;;;;6.18;1.08;;;;;;;;;;4969653;28;20031;-76
2022/05/29 01:53:17;;;;;;;3.03;0.93;;;;;;;;;;4978941;28;20169;-77
2022/05/29 01:55:55;;;;;;;3.53;1.30;;;;;;;;;;4974468;28;20492;-76
2022/05/29 01:58:26;;;;;;;4.63;1.20;;;;;;;;;;4974854;28;20444;-76
2022/05/29 02:00:53;;;;;;;3.60;1.40;;;;;;;;;;4974230;28;20027;-76
2022/05/29 02:03:31;;;;;;;3.33;1.17;;;;;;;;;;4974384;28;20033;-76
2022/05/29 02:06:21;;;;;;;4.45;1.10;;;;;;;;;;4974141;28;20041;-77
2022/05/29 02:08:47;;;;;;;6.75;1.20;;;;;;;;;;4973961;28;20508;-76
2022/05/29 02:11:20;;;;;;;2.85;0.90;;;;;;;;;;4969983;28;20023;-76
2022/05/29 02:14:06;;;;;;;4.93;1.00;;;;;;;;;;4970502;28;20049;-76
2022/05/29 02:16:32;;;;;;;5.22;1.15;;;;;;;;;;4969619;28;20035;-76
2022/05/29 02:19:06;;;;;;;3.22;1.13;;;;;;;;;;4969786;28;20488;-77
2022/05/29 02:21:41;;;;;;;4.57;1.15;;;;;;;;;;4969828;28;20035;-76
2022/05/29 02:24:10;;;;;;;4.07;0.93;;;;;;;;;;4974034;28;20022;-76
2022/05/29 02:26:40;;;;;;;5.68;1.10;;;;;;;;;;4973411;28;20034;-76
2022/05/29 02:29:10;;;;;;;5.20;1.20;;;;;;;;;;4969786;28;20025;-77
2022/05/29 02:31:56;;;;;;;6.18;1.20;;;;;;;;;;4969496;28;20019;-76
2022/05/29 02:34:40;;;;;;;9.30;1.65;;;;;;;;;;4970840;28;20043;-76
2022/05/29 02:37:13;;;;;;;6.00;0.90;;;;;;;;;;4973761;28;20525;-77
2022/05/29 02:39:58;;;;;;;6.88;1.20;;;;;;;;;;4973957;28;20369;-76
2022/05/29 02:42:36;;;;;;;4.03;1.10;;;;;;;;;;4959024;28;20022;-76
2022/05/29 02:45:07;;;;;;;4.13;1.30;;;;;;;;;;4973088;28;20037;-76
2022/05/29 02:47:45;;;;;;;3.40;1.10;;;;;;;;;;4970054;28;20650;-76
2022/05/29 02:50:21;;;;;;;4.97;1.17;;;;;;;;;;4972868;28;20026;-77
2022/05/29 02:52:51;;;;;;;9.30;1.13;;;;;;;;;;4973416;28;20487;-76
2022/05/29 02:55:18;;;;;;;4.35;1.20;;;;;;;;;;4973137;28;20431;-76
2022/05/29 02:57:45;;;;;;;5.43;1.20;;;;;;;;;;4973177;28;20488;-77
2022/05/29 03:00:12;;;;;;;4.60;1.20;;;;;;;;;;4957317;28;20027;-76
2022/05/29 03:02:57;;;;;;;3.28;1.00;;;;;;;;;;4969474;28;20031;-76
2022/05/29 03:05:26;;;;;;;5.82;0.90;;;;;;;;;;4971575;28;20035;-76
2022/05/29 03:08:02;;;;;;;5.68;1.30;;;;;;;;;;4973399;28;20027;-76
2022/05/29 03:10:43;;;;;;;5.55;1.10;;;;;;;;;;4972866;28;20492;-76
2022/05/29 03:13:15;;;;;;;3.10;1.17;;;;;;;;;;4973369;28;20030;-77
2022/05/29 03:15:41;;;;;;;3.28;1.10;;;;;;;;;;4973050;28;20039;-76
2022/05/29 03:18:14;;;;;;;4.25;0.93;;;;;;;;;;4972872;28;20484;-76
2022/05/29 03:20:48;;;;;;;3.92;1.20;;;;;;;;;;4969931;28;20027;-76
2022/05/29 03:23:17;;;;;;;5.60;1.35;;;;;;;;;;4973190;28;20037;-75
2022/05/29 03:25:48;;;;;;;7.35;1.38;;;;;;;;;;4972882;28;20503;-76
2022/05/29 03:28:50;;;;;;;5.22;1.30;;;;;;;;;;4972945;28;20027;-76
2022/05/29 03:31:18;;;;;;;4.05;1.08;;;;;;;;;;4970761;28;20029;-76
2022/05/29 03:33:48;;;;;;;4.75;1.15;;;;;;;;;;4966439;28;20047;-77
2022/05/29 03:36:15;;;;;;;3.40;0.90;;;;;;;;;;4970670;28;20500;-76
2022/05/29 03:38:42;;;;;;;4.90;1.35;;;;;;;;;;4971534;28;20034;-76
2022/05/29 03:41:13;;;;;;;4.03;1.10;;;;;;;;;;4966067;28;20035;-76
2022/05/29 03:43:40;;;;;;;5.93;1.38;;;;;;;;;;4971360;28;20414;-76
2022/05/29 03:46:07;;;;;;;3.20;0.88;;;;;;;;;;4966391;28;21633;-76
2022/05/29 03:48:34;;;;;;;4.47;1.38;;;;;;;;;;4970057;28;20069;-77
2022/05/29 03:51:07;;;;;;;2.42;1.05;;;;;;;;;;4970672;28;20039;-76
2022/05/29 03:53:34;;;;;;;3.58;0.93;;;;;;;;;;4967190;28;20039;-76
2022/05/29 03:56:00;;;;;;;2.05;0.90;;;;;;;;;;4970046;28;20125;-76
2022/05/29 03:58:26;;;;;;;4.10;1.00;;;;;;;;;;4966032;28;20049;-76
2022/05/29 04:00:53;;;;;;;5.38;1.33;;;;;;;;;;4970133;28;20035;-77
2022/05/29 04:03:20;;;;;;;7.80;1.42;;;;;;;;;;4969560;28;20035;-77
2022/05/29 04:05:46;;;;;;;4.13;1.27;;;;;;;;;;4968508;28;20053;-77
2022/05/29 04:13:44;;;;;;;6.43;1.23;;;;;;;;;;4976276;28;20037;-77
2022/05/29 04:16:10;;;;;;;6.05;1.20;;;;;;;;;;4975732;28;20037;-76
2022/05/29 04:18:37;;;;;;;7.15;1.35;;;;;;;;;;4976350;28;20031;-77
2022/05/29 04:21:05;;;;;;;4.05;1.17;;;;;;;;;;4976610;28;20030;-76
2022/05/29 04:23:31;;;;;;;4.82;1.40;;;;;;;;;;4976483;28;20033;-77
2022/05/29 04:25:58;;;;;;;2.90;1.05;;;;;;;;;;4975887;28;20030;-76
2022/05/29 04:28:25;;;;;;;2.83;0.90;;;;;;;;;;4976341;28;20023;-77
2022/05/29 04:30:51;;;;;;;7.65;1.23;;;;;;;;;;4975489;28;20029;-76
2022/05/29 04:33:18;;;;;;;3.67;1.02;;;;;;;;;;4975851;28;20019;-77
2022/05/29 04:35:48;;;;;;;6.05;1.40;;;;;;;;;;4976484;28;20492;-76
2022/05/29 04:38:14;;;;;;;3.57;1.20;;;;;;;;;;4976250;28;20069;-76
2022/05/29 04:40:41;;;;;;;5.65;1.17;;;;;;;;;;4975677;28;20027;-77
2022/05/29 04:43:08;;;;;;;3.83;1.48;;;;;;;;;;4975871;28;20443;-76
2022/05/29 04:45:35;;;;;;;6.05;1.00;;;;;;;;;;4975325;28;20026;-76
2022/05/29 04:48:01;;;;;;;5.97;1.20;;;;;;;;;;4975498;28;20392;-77
2022/05/29 04:50:27;;;;;;;3.42;1.00;;;;;;;;;;4975930;28;20030;-76
2022/05/29 04:52:53;;;;;;;6.28;1.13;;;;;;;;;;4975738;28;20023;-76
2022/05/29 04:55:20;;;;;;;3.75;1.35;;;;;;;;;;4975365;28;20031;-76
2022/05/29 04:57:46;;;;;;;2.92;1.20;;;;;;;;;;4975814;28;20046;-76
2022/05/29 05:00:13;;;;;;;3.60;1.20;;;;;;;;;;4960205;28;20026;-76
2022/05/29 05:02:40;;;;;;;3.58;1.20;;;;;;;;;;4971939;28;20023;-76
2022/05/29 05:05:06;;;;;;;6.78;1.30;;;;;;;;;;4971107;28;20037;-77
2022/05/29 05:07:35;;;;;;;4.70;1.30;;;;;;;;;;4970923;28;20022;-76
2022/05/29 05:10:01;;;;;;;4.38;1.40;;;;;;;;;;4971588;28;20396;-77
2022/05/29 05:12:27;;;;;;;4.57;1.70;;;;;;;;;;4973857;28;20023;-76
2022/05/29 05:14:54;;;;;;;3.08;1.13;;;;;;;;;;4972835;28;20073;-76
2022/05/29 05:17:20;;;;;;;1.55;0.98;;;;;;;;;;4972587;28;20039;-77
2022/05/29 05:19:46;;;;;;;5.18;1.50;;;;;;;;;;4970945;28;20080;-77
2022/05/29 05:22:13;;;;;;;2.47;1.02;;;;;;;;;;4970199;28;20073;-77
2022/05/29 05:24:39;;;;;;;5.57;1.17;;;;;;;;;;4971731;28;20020;-76
2022/05/29 05:27:09;;;;;;;5.13;1.55;;;;;;;;;;4974151;28;20023;-76
2022/05/29 05:29:36;;;;;;;4.68;0.80;;;;;;;;;;4970725;28;20107;-76
2022/05/29 05:32:02;;;;;;;6.20;1.30;;;;;;;;;;4970401;28;20041;-76
2022/05/29 05:34:28;;;;;;;4.78;1.25;;;;;;;;;;4970669;28;20395;-76
2022/05/29 05:36:56;;;;;;;6.57;1.20;;;;;;;;;;4970577;28;20025;-76
2022/05/29 05:39:22;;;;;;;6.57;1.13;;;;;;;;;;4974901;28;20038;-77
2022/05/29 05:41:49;;;;;;;5.22;1.40;;;;;;;;;;4975366;28;20023;-76
2022/05/29 05:44:16;;;;;;;3.25;1.17;;;;;;;;;;4974756;28;20034;-76
2022/05/29 05:46:49;;;;;;;6.65;1.50;;;;;;;;;;4974689;28;20051;-76
2022/05/29 05:49:17;;;;;;;3.53;1.30;;;;;;;;;;4974483;28;20031;-75
2022/05/29 05:51:43;;;;;;;8.15;1.88;;;;;;;;;;4970118;28;20037;-76
2022/05/29 05:54:10;;;;;;;4.00;1.20;;;;;;;;;;4974333;28;20015;-76
2022/05/29 05:56:37;;;;;;;6.35;1.40;;;;;;;;;;4970717;28;20488;-76
2022/05/29 05:59:05;;;;;;;6.75;1.40;;;;;;;;;;4969661;28;20492;-76
2022/05/29 06:01:31;;;;;;;3.08;0.93;;;;;;;;;;4969930;28;20031;-77
2022/05/29 06:03:57;;;;;;;6.28;0.90;;;;;;;;;;4970395;28;20030;-76
2022/05/29 06:06:24;;;;;;;3.47;1.20;;;;;;;;;;4973497;28;20019;-76
2022/05/29 06:08:50;;;;;;;5.82;1.40;;;;;;;;;;4971388;28;20077;-76
2022/05/29 06:11:16;;;;;;;4.72;1.05;;;;;;;;;;4969527;28;20039;-77
2022/05/29 06:13:43;;;;;;;5.97;1.25;;;;;;;;;;4970584;28;20026;-76
2022/05/29 06:16:09;;;;;;;3.33;1.10;;;;;;;;;;4969693;28;20031;-77
2022/05/29 06:18:36;;;;;;;3.60;1.08;;;;;;;;;;4974134;28;20033;-77
2022/05/29 06:21:06;;;;;;;4.45;1.20;;;;;;;;;;4974222;28;20280;-77
2022/05/29 06:23:34;;;;;;;3.95;1.38;;;;;;;;;;4974451;28;20023;-76
2022/05/29 06:26:04;;;;;;;3.67;1.02;;;;;;;;;;4973466;28;20870;-76
2022/05/29 06:28:31;;;;;;;3.22;1.05;;;;;;;;;;4973797;28;20431;-76
2022/05/29 06:30:58;;;;;;;5.03;1.10;;;;;;;;;;4973593;28;20031;-76
2022/05/29 06:33:26;;;;;;;3.67;0.82;;;;;;;;;;4972878;28;20492;-77
2022/05/29 06:35:53;;;;;;;5.20;0.90;;;;;;;;;;4974253;28;20041;-77
2022/05/29 06:38:20;;;;;;;7.57;1.10;;;;;;;;;;4974520;28;20484;-76
2022/05/29 06:40:49;;;;;;;5.32;1.10;;;;;;;;;;4973281;28;20033;-77
2022/05/29 06:43:17;;;;;;;7.22;1.45;;;;;;;;;;4973605;28;20399;-76
2022/05/29 06:45:43;;;;;;;2.83;1.15;;;;;;;;;;4973782;28;20035;-76
2022/05/29 06:48:09;;;;;;;4.43;1.00;;;;;;;;;;4973299;28;20419;-76
2022/05/29 06:50:36;;;;;;;6.35;1.48;;;;;;;;;;4973342;28;20395;-76
2022/05/29 06:53:02;;;;;;;3.03;1.00;;;;;;;;;;4969295;28;20419;-76
2022/05/29 06:55:28;;;;;;;3.20;1.00;;;;;;;;;;4970431;28;20114;-76
2022/05/29 06:57:55;;;;;;;3.08;1.17;;;;;;;;;;4973479;28;20015;-76
2022/05/29 07:08:45;;;;;;;5.82;1.15;;;;;;;;;;4970229;28;20054;-77
2022/05/29 07:11:19;;;;;;;3.90;1.10;;;;;;;;;;4968711;28;20022;-76
2022/05/29 07:13:45;;;;;;;4.32;1.30;;;;;;;;;;4969165;28;20030;-76
2022/05/29 07:16:12;;;;;;;5.00;1.55;;;;;;;;;;4968633;28;20038;-76
2022/05/29 07:18:38;;;;;;;3.38;1.17;;;;;;;;;;4969959;28;20028;-77
2022/05/29 07:21:06;;;;;;;4.25;1.30;;;;;;;;;;4972318;28;20434;-74
2022/05/29 07:23:33;;;;;;;5.68;1.30;;;;;;;;;;4969194;28;20384;-74
2022/05/29 07:25:59;;;;;;;4.35;1.23;;;;;;;;;;4968430;28;20037;-74
2022/05/29 07:28:26;;;;;;;3.13;1.17;;;;;;;;;;4969083;28;20026;-74
2022/05/29 07:30:54;;;;;;;4.35;1.30;;;;;;;;;;4968342;28;20028;-74
2022/05/29 07:33:21;;;;;;;5.38;1.40;;;;;;;;;;4972238;28;20026;-74
2022/05/29 07:35:47;;;;;;;2.60;1.10;;;;;;;;;;4969897;28;20045;-74
2022/05/29 07:38:14;;;;;;;4.82;1.27;;;;;;;;;;4973214;28;20093;-74
2022/05/29 07:40:40;;;;;;;2.20;1.10;;;;;;;;;;4972532;28;20023;-74
2022/05/29 07:43:19;;;;;;;3.78;1.38;;;;;;;;;;4972949;28;20041;-74
2022/05/29 07:45:53;;;;;;;2.47;1.00;;;;;;;;;;4972729;28;20031;-74
2022/05/29 07:48:20;;;;;;;2.63;1.20;;;;;;;;;;4957455;28;20046;-73
2022/05/29 07:50:47;;;;;;;2.42;1.30;;;;;;;;;;4970161;28;20043;-74
2022/05/29 07:53:13;;;;;;;3.00;1.17;;;;;;;;;;4968430;28;20027;-74
2022/05/29 07:55:40;;;;;;;3.58;1.17;;;;;;;;;;4968220;28;20039;-74
2022/05/29 07:58:07;;;;;;;3.83;1.52;;;;;;;;;;4968522;28;20023;-74
2022/05/29 08:00:35;;;;;;;5.18;1.33;;;;;;;;;;4970384;28;20033;-74
2022/05/29 08:03:01;;;;;;;6.38;1.40;;;;;;;;;;4973301;28;20023;-74
2022/05/29 08:05:29;;;;;;;2.70;1.40;;;;;;;;;;4973582;28;20026;-74
2022/05/29 08:07:55;;;;;;;6.03;1.30;;;;;;;;;;4972223;28;20031;-74
2022/05/29 08:10:23;;;;;;;5.32;1.13;;;;;;;;;;4972669;28;20021;-74
2022/05/29 08:12:49;;;;;;;2.22;1.35;;;;;;;;;;4972724;28;20392;-74
2022/05/29 08:15:16;;;;;;;4.75;1.42;;;;;;;;;;4972305;28;20046;-74
2022/05/29 08:17:42;;;;;;;5.78;1.42;;;;;;;;;;4973360;28;20027;-74
2022/05/29 08:20:10;;;;;;;4.97;1.40;;;;;;;;;;4972347;28;20027;-74
2022/05/29 08:22:36;;;;;;;2.67;1.13;;;;;;;;;;4971774;28;20411;-74
2022/05/29 08:30:43;;;;;;;3.13;1.33;;;;;;;;;;4972241;28;20023;-74
2022/05/29 08:33:14;;;;;;;2.42;1.10;;;;;;;;;;4970666;28;20025;-73
2022/05/29 08:35:42;;;;;;;5.15;1.33;;;;;;;;;;4968772;28;20043;-74
2022/05/29 08:38:09;;;;;;;3.67;1.80;;;;;;;;;;4971921;28;20031;-74
2022/05/29 08:40:56;;;;;;;5.07;1.30;;;;;;;;;;4972440;28;20464;-74
2022/05/29 08:43:27;;;;;;;2.75;1.27;;;;;;;;;;4972231;28;20019;-74
2022/05/29 08:45:54;;;;;;;3.40;1.60;;;;;;;;;;4972088;28;20026;-74
2022/05/29 08:48:22;;;;;;;3.80;1.58;;;;;;;;;;4972300;28;20062;-74
2022/05/29 08:51:03;;;;;;;2.40;1.23;;;;;;;;;;4972269;28;20035;-74
2022/05/29 08:53:35;;;;;;;3.47;1.52;;;;;;;;;;4973055;28;20037;-74
2022/05/29 08:56:05;;;;;;;2.40;1.15;;;;;;;;;;4972143;28;20038;-74
2022/05/29 08:58:43;;;;;;;5.30;1.60;;;;;;;;;;4975346;28;20023;-74
2022/05/29 09:01:33;;;;;;;4.47;1.27;;;;;;;;;;4976333;28;20023;-74
2022/05/29 09:04:00;;;;;;;;;;;;;;;;;;5004244;28;20042;-74
2022/05/29 09:06:39;;;;;;;5.70;2.35;;;;;;;;;;5006350;28;19909;-74
2022/05/29 09:09:06;;;;;;;;;;;;;;;;;;5009349;28;20097;-74
2022/05/29 09:11:37;;;;;;;5.50;2.50;;;;;;;;;;5007607;28;19915;-74
2022/05/29 09:14:13;;;;;;;6.85;1.30;;;;;;;;;;5003289;28;20034;-74
2022/05/29 09:16:45;;;;;;;3.10;1.20;;;;;;;;;;5003320;28;20037;-74
2022/05/29 09:19:29;;;;;;;4.90;1.42;;;;;;;;;;5003224;28;20022;-74
2022/05/29 09:21:56;;;;;;;3.63;1.40;;;;;;;;;;5003256;28;20050;-74
2022/05/29 09:24:25;;;;;;;2.97;1.52;;;;;;;;;;5007065;28;20028;-74
2022/05/29 09:26:51;;;;;;;3.20;1.95;;;;;;;;;;5008643;28;20032;-74
2022/05/29 09:29:19;;;;;;;2.53;1.30;;;;;;;;;;4996903;28;20519;-73
2022/05/29 09:31:46;;;;;;;3.58;1.38;;;;;;;;;;4996684;28;20033;-74
2022/05/29 09:34:12;;;;;;;3.30;1.30;;;;;;;;;;4996472;28;20049;-74
2022/05/29 09:36:52;;;;;;;2.05;1.30;;;;;;;;;;4995630;28;20048;-74
2022/05/29 09:39:24;;;;;;;2.33;1.38;;;;;;;;;;4977467;28;20034;-73
2022/05/29 09:42:03;;;;;;;3.30;1.40;;;;;;;;;;4977432;28;20077;-74
2022/05/29 09:44:30;;;;;;;3.70;1.73;;;;;;;;;;4973941;28;20391;-74
2022/05/29 09:49:40;;;;;;;3.42;1.58;;;;;;;;;;4974536;28;20047;-73
2022/05/29 09:50:01;;;;;;;3.35;1.50;;;;;;;;;;4974161;28;20058;-73
2022/05/29 09:52:31;;;;;;;2.70;1.30;;;;;;;;;;4974693;28;20409;-73
2022/05/29 09:55:03;;;;;;;1.73;1.17;;;;;;;;;;4974827;28;20039;-74
2022/05/29 09:57:32;;;;;;;6.03;1.50;;;;;;;;;;4974866;28;20011;-73
2022/05/29 10:00:06;;;;;;;2.13;1.33;;;;;;;;;;4974319;28;20033;-74
2022/05/29 10:02:39;;;;;;;3.25;1.50;;;;;;;;;;4973881;28;20053;-73
2022/05/29 10:05:20;;;;;;;14.18;7.90;;;;;;;;;;4973905;28;20397;-73
2022/05/29 10:07:47;;;;;;;2.42;1.60;;;;;;;;;;4974086;28;20037;-74
2022/05/29 10:10:34;;;;;;;2.97;1.50;;;;;;;;;;4974308;28;20019;-74
2022/05/29 10:13:01;;;;;;;3.75;1.50;;;;;;;;;;4974486;28;20033;-74
2022/05/29 10:15:27;;;;;;;1.70;1.40;;;;;;;;;;4974295;28;20034;-74
2022/05/29 10:18:01;;;;;;;3.35;1.38;;;;;;;;;;4974076;28;20476;-73
2022/05/29 10:20:33;;;;;;;2.80;1.40;;;;;;;;;;4973214;28;20406;-74
2022/05/29 10:23:07;;;;;;;2.83;1.50;;;;;;;;;;4974574;28;20023;-75
2022/05/29 10:25:35;;;;;;;4.07;1.63;;;;;;;;;;4974198;28;20030;-74
2022/05/29 10:28:03;;;;;;;2.80;1.48;;;;;;;;;;4974139;28;20480;-74
2022/05/29 10:30:44;;;;;;;2.58;1.38;;;;;;;;;;4974022;28;20423;-74
2022/05/29 10:33:13;;;;;;;3.35;1.40;;;;;;;;;;4973438;28;20025;-74
2022/05/29 10:35:41;;;;;;;2.95;1.67;;;;;;;;;;4974537;28;20037;-74
2022/05/29 10:38:19;;;;;;;1.75;1.10;;;;;;;;;;4973566;28;20377;-74
2022/05/29 10:40:47;;;;;;;4.00;1.30;;;;;;;;;;4973358;28;20391;-74
2022/05/29 10:43:32;;;;;;;2.22;1.30;;;;;;;;;;4973549;28;20037;-74
2022/05/29 10:46:03;;;;;;;2.15;1.30;;;;;;;;;;4973653;28;20033;-73
2022/05/29 10:48:30;;;;;;;2.42;1.20;;;;;;;;;;4973094;28;20046;-74
2022/05/29 10:51:05;;;;;;;1.98;1.17;;;;;;;;;;4973388;28;20369;-74
2022/05/29 10:53:50;;;;;;;3.03;1.10;;;;;;;;;;4973040;28;20033;-74
2022/05/29 10:56:16;;;;;;;2.30;1.10;;;;;;;;;;4968663;28;20530;-73
2022/05/29 10:58:47;;;;;;;4.65;1.23;;;;;;;;;;4969166;28;20018;-74
2022/05/29 11:04:14;;;;;;;3.13;1.25;;;;;;;;;;4968942;28;20484;-74
2022/05/29 11:06:46;;;;;;;4.43;1.30;;;;;;;;;;4969749;28;20033;-74
2022/05/29 11:09:25;;;;;;;1.98;1.02;;;;;;;;;;4973332;28;20025;-74
2022/05/29 11:11:55;;;;;;;3.63;1.17;;;;;;;;;;4970443;28;20031;-74
2022/05/29 11:14:42;;;;;;;2.28;1.10;;;;;;;;;;4969383;28;20289;-74
2022/05/29 11:17:17;;;;;;;4.78;1.23;;;;;;;;;;4968166;28;20517;-74
2022/05/29 11:20:02;;;;;;;2.50;1.10;;;;;;;;;;4968208;28;20030;-74
2022/05/29 11:22:47;;;;;;;2.75;1.08;;;;;;;;;;4968519;28;20029;-74
2022/05/29 11:25:28;;;;;;;2.72;1.20;;;;;;;;;;4968540;28;20494;-74
2022/05/29 11:28:08;;;;;;;4.00;2.00;;;;;;;;;;4968559;28;20027;-74
2022/05/29 11:30:46;;;;;;;3.78;2.90;;;;;;;;;;4972431;28;20514;-74
2022/05/29 11:33:21;;;;;;;2.95;2.05;;;;;;;;;;4957670;28;20033;-73
2022/05/29 11:35:48;;;;;;;2.58;1.48;;;;;;;;;;4969457;28;20037;-74
2022/05/29 11:38:33;;;;;;;3.92;1.33;;;;;;;;;;4968752;28;20030;-74
2022/05/29 11:41:02;;;;;;;1.90;1.40;;;;;;;;;;4968500;28;20027;-74
2022/05/29 11:43:35;;;;;;;1.98;1.23;;;;;;;;;;4968237;28;20027;-73
2022/05/29 11:52:13;;;;;;;2.72;1.50;;;;;;;;;;4969266;28;20042;-74
2022/05/29 11:54:44;;;;;;;2.40;1.40;;;;;;;;;;4969160;28;20019;-74
2022/05/29 11:57:19;;;;;;;1.92;1.13;;;;;;;;;;4972538;28;20038;-74
2022/05/29 12:00:03;;;;;;;2.75;1.30;;;;;;;;;;4968764;28;20027;-74
2022/05/29 12:02:48;;;;;;;2.85;1.73;;;;;;;;;;4971680;28;20037;-74
2022/05/29 12:05:17;;;;;;;1.75;0.95;;;;;;;;;;4972441;28;20057;-73
2022/05/29 12:07:50;;;;;;;2.00;1.10;;;;;;;;;;4972674;28;20057;-74
2022/05/29 12:10:23;;;;;;;1.58;1.10;;;;;;;;;;4972434;28;20031;-74
2022/05/29 12:13:04;;;;;;;2.58;1.00;;;;;;;;;;4972376;28;20591;-74
2022/05/29 12:15:31;;;;;;;1.42;1.13;;;;;;;;;;4971841;28;20387;-74
2022/05/29 12:17:59;;;;;;;1.65;1.13;;;;;;;;;;4972592;28;20061;-74
2022/05/29 12:20:35;;;;;;;2.22;1.02;;;;;;;;;;4970870;28;20403;-73
2022/05/29 12:23:20;;;;;;;3.05;1.27;;;;;;;;;;4972414;28;20022;-74
2022/05/29 12:25:55;;;;;;;2.92;1.20;;;;;;;;;;4972211;28;20031;-74
2022/05/29 12:28:42;;;;;;;3.95;1.23;;;;;;;;;;4971986;28;20015;-74
2022/05/29 12:31:12;;;;;;;1.95;1.10;;;;;;;;;;4971897;28;20526;-74
2022/05/29 12:33:43;;;;;;;3.88;1.30;;;;;;;;;;4975920;28;20031;-74
2022/05/29 12:36:19;;;;;;;1.55;1.00;;;;;;;;;;4975909;28;20034;-74
2022/05/29 12:38:51;;;;;;;1.85;1.15;;;;;;;;;;4972514;28;20500;-73
2022/05/29 12:41:25;;;;;;;2.03;1.08;;;;;;;;;;4971547;28;20507;-74
2022/05/29 12:43:52;;;;;;;3.45;1.20;;;;;;;;;;4970996;28;20033;-73
2022/05/29 12:46:36;;;;;;;3.33;0.98;;;;;;;;;;4971291;28;20025;-74
2022/05/29 12:49:12;;;;;;;2.88;1.17;;;;;;;;;;4975644;28;20045;-73
2022/05/29 12:51:38;;;;;;;1.77;1.17;;;;;;;;;;4975683;28;20031;-73
2022/05/29 12:54:14;;;;;;;3.67;1.10;;;;;;;;;;4975738;28;20068;-74
2022/05/29 12:56:59;;;;;;;1.80;0.90;;;;;;;;;;4975991;28;20031;-74
2022/05/29 12:59:28;;;;;;;3.45;1.00;;;;;;;;;;4975456;28;20484;-74
2022/05/29 13:02:00;;;;;;;2.25;1.20;;;;;;;;;;4975247;28;20045;-73
2022/05/29 13:04:59;;;;;;;1.20;0.98;;;;;;;;;;4975183;28;20403;-73
2022/05/29 13:07:26;;;;;;;2.60;1.00;;;;;;;;;;4973195;28;20053;-73
2022/05/29 13:09:59;;;;;;;2.55;1.13;;;;;;;;;;4968599;28;20086;-73
2022/05/29 13:12:33;;;;;;;2.13;1.00;;;;;;;;;;4972709;28;20442;-73
2022/05/29 13:15:02;;;;;;;2.63;1.20;;;;;;;;;;4972826;28;20045;-73
2022/05/29 13:17:30;;;;;;;1.85;1.02;;;;;;;;;;4969083;28;20051;-73
2022/05/29 13:20:11;;;;;;;1.60;0.90;;;;;;;;;;4972627;28;20018;-73
2022/05/29 13:22:51;;;;;;;2.40;0.90;;;;;;;;;;4968339;28;20038;-74
2022/05/29 13:25:20;;;;;;;2.10;1.10;;;;;;;;;;4972669;28;20023;-73
2022/05/29 13:27:47;;;;;;;1.65;1.00;;;;;;;;;;4968592;28;20190;-74
2022/05/29 13:30:42;;;;;;;3.83;0.90;;;;;;;;;;4972745;28;20054;-74
2022/05/29 13:33:27;;;;;;;3.08;0.98;;;;;;;;;;4964418;28;20060;-74
2022/05/29 13:35:54;;;;;;;3.42;1.10;;;;;;;;;;4972694;28;20047;-73
2022/05/29 13:38:39;;;;;;;2.33;1.20;;;;;;;;;;4968810;28;20055;-73
2022/05/29 13:41:05;;;;;;;2.00;0.95;;;;;;;;;;4971777;28;20027;-74
2022/05/29 13:43:31;;;;;;;3.28;1.00;;;;;;;;;;4972941;28;20438;-73
2022/05/29 13:46:05;;;;;;;2.00;1.02;;;;;;;;;;4974530;28;20019;-73
2022/05/29 13:48:32;;;;;;;3.65;1.10;;;;;;;;;;4974368;28;20039;-74
2022/05/29 13:50:58;;;;;;;3.03;0.90;;;;;;;;;;4974755;28;20030;-73
2022/05/29 13:53:29;;;;;;;2.45;1.10;;;;;;;;;;4972884;28;20427;-73
2022/05/29 13:56:03;;;;;;;3.75;1.13;;;;;;;;;;4974053;28;20034;-73
2022/05/29 14:04:33;;;;;;;1.75;0.90;;;;;;;;;;4974112;28;20030;-74
2022/05/29 14:07:08;;;;;;;2.47;0.95;;;;;;;;;;4974213;28;20080;-73
2022/05/29 14:09:41;;;;;;;3.05;1.00;;;;;;;;;;4974076;28;20126;-74
2022/05/29 14:12:07;;;;;;;3.20;1.33;;;;;;;;;;4974249;28;20019;-73
2022/05/29 14:14:34;;;;;;;2.22;1.30;;;;;;;;;;4974644;28;20488;-74
2022/05/29 14:17:23;;;;;;;2.85;0.90;;;;;;;;;;4973792;28;20031;-74
2022/05/29 14:19:50;;;;;;;2.67;1.10;;;;;;;;;;4969581;28;20500;-74
2022/05/29 14:22:48;;;;;;;1.58;1.00;;;;;;;;;;4974125;28;20027;-74
2022/05/29 14:25:20;;;;;;;3.63;1.10;;;;;;;;;;4971052;28;20403;-74
2022/05/29 14:28:06;;;;;;;1.67;0.88;;;;;;;;;;4967541;28;20061;-74
2022/05/29 14:30:33;;;;;;;3.25;0.90;;;;;;;;;;4971448;28;20030;-74
2022/05/29 14:33:16;;;;;;;2.35;0.80;;;;;;;;;;4971568;28;20026;-74
2022/05/29 14:35:59;;;;;;;1.33;0.90;;;;;;;;;;4967971;28;20059;-74
2022/05/29 14:38:37;;;;;;;3.38;1.05;;;;;;;;;;4969969;28;20504;-74
2022/05/29 14:41:11;;;;;;;2.88;0.80;;;;;;;;;;4966682;28;20033;-73
2022/05/29 14:43:40;;;;;;;2.58;0.90;;;;;;;;;;4971536;28;20043;-74
2022/05/29 14:49:16;;;;;;;1.38;0.90;;;;;;;;;;4971126;28;20039;-74
2022/05/29 14:51:48;;;;;;;4.37;0.80;;;;;;;;;;4967941;28;20037;-74
2022/05/29 14:54:21;;;;;;;2.20;0.75;;;;;;;;;;4939195;28;20034;-74
2022/05/29 14:56:55;;;;;;;3.47;0.82;;;;;;;;;;4971302;28;20050;-74
2022/05/29 14:59:23;;;;;;;5.78;1.02;;;;;;;;;;4967352;28;20042;-74
2022/05/29 15:01:56;;;;;;;3.85;1.10;;;;;;;;;;4964198;28;20031;-74
2022/05/29 15:04:34;;;;;;;7.38;0.70;;;;;;;;;;4962756;28;20022;-74
2022/05/29 15:12:40;;;;;;;4.15;0.90;;;;;;;;;;4957843;28;20027;-74
2022/05/29 15:15:15;;;;;;;1.75;0.80;;;;;;;;;;4972272;28;20025;-74
2022/05/29 15:17:42;;;;;;;4.30;0.80;;;;;;;;;;4969413;28;20035;-74
2022/05/29 15:25:42;;;;;;;2.05;0.60;;;;;;;;;;4972694;28;20116;-74
2022/05/29 15:28:09;;;;;;;1.65;0.85;;;;;;;;;;4973018;28;20026;-74
2022/05/29 15:30:40;;;;;;;4.78;0.85;;;;;;;;;;4972652;28;20023;-74
2022/05/29 15:33:09;;;;;;;1.23;0.60;;;;;;;;;;4972753;28;20806;-73
2022/05/29 15:35:54;;;;;;;2.38;0.75;;;;;;;;;;4973193;28;20045;-74
2022/05/29 15:38:38;;;;;;;1.63;0.77;;;;;;;;;;4972150;28;20035;-74
2022/05/29 15:41:11;;;;;;;2.35;0.80;;;;;;;;;;4972541;28;20022;-74
2022/05/29 15:43:37;;;;;;;1.77;0.80;;;;;;;;;;4972554;28;20534;-74
2022/05/29 15:46:13;;;;;;;4.88;0.90;;;;;;;;;;4972664;28;20025;-73
2022/05/29 15:48:49;;;;;;;2.83;0.70;;;;;;;;;;4972909;28;20057;-74
2022/05/29 15:51:21;;;;;;;2.40;0.80;;;;;;;;;;4956838;28;20389;-74
2022/05/29 15:53:52;;;;;;;3.80;1.00;;;;;;;;;;4969316;28;20018;-74
2022/05/29 15:56:18;;;;;;;;;;;;;;;;;;4973324;28;20049;-74